Time;durP1;ratioP1;P1;durP2;ratioP2;P2;SDS_P1;SDS_P2;PMS_P1;PMS_P2;Temp;Humidity;BMP_temperature;BMP_pressure;BME280_temperature;BME280_humidity;BME280_pressure;Samples;Min_cycle;Max_cycle;Signal;HPM_P1;HPM_P2
2023/10/12 00:01:57;;;;;;;23.98;9.73;;;;;;;12.21;100.00;98408.81;5160432;27;20103;-59
2023/10/12 00:04:25;;;;;;;20.60;9.27;;;;;;;12.19;100.00;98405.66;5160353;27;20046;-57
2023/10/12 00:06:51;;;;;;;23.77;9.07;;;;;;;12.06;100.00;98379.75;5160454;27;20076;-58
2023/10/12 00:09:19;;;;;;;17.38;9.90;;;;;;;12.23;100.00;98380.94;5160136;27;20051;-60
2023/10/12 00:11:54;;;;;;;13.95;8.48;;;;;;;12.07;100.00;98350.34;5160250;27;20046;-59
2023/10/12 00:14:22;;;;;;;15.48;9.50;;;;;;;11.99;100.00;98325.63;5160264;27;20055;-60
2023/10/12 00:16:49;;;;;;;14.93;9.38;;;;;;;12.15;100.00;98324.41;5160363;27;20057;-57
2023/10/12 00:19:15;;;;;;;16.58;8.73;;;;;;;12.14;100.00;98298.91;5159916;27;20050;-58
2023/10/12 00:21:43;;;;;;;16.17;9.23;;;;;;;12.10;100.00;98284.41;5160390;27;20050;-57
2023/10/12 00:24:11;;;;;;;16.10;8.98;;;;;;;12.36;100.00;98296.91;5159811;27;20416;-57
2023/10/12 00:26:37;;;;;;;18.42;9.07;;;;;;;12.35;100.00;98300.81;5159965;27;20054;-57
2023/10/12 00:29:06;;;;;;;18.75;9.35;;;;;;;12.12;100.00;98305.97;5160129;27;20046;-59
2023/10/12 00:31:32;;;;;;;14.32;8.50;;;;;;;11.97;100.00;98261.28;5159933;27;20042;-58
2023/10/12 00:33:58;;;;;;;15.73;9.55;;;;;;;12.12;100.00;98256.53;5160238;27;20046;-58
2023/10/12 00:36:24;;;;;;;16.55;9.43;;;;;;;12.20;100.00;98252.59;5159625;27;20050;-58
2023/10/12 00:38:52;;;;;;;20.73;9.23;;;;;;;12.23;100.00;98238.84;5158823;27;20046;-60
2023/10/12 00:41:19;;;;;;;17.73;10.00;;;;;;;12.08;100.00;98242.78;5159455;27;20313;-58
2023/10/12 00:43:49;;;;;;;17.20;9.32;;;;;;;12.20;100.00;98236.09;5159877;27;20416;-59
2023/10/12 00:46:32;;;;;;;20.60;8.77;;;;;;;12.39;100.00;98221.09;5159470;27;20050;-58
2023/10/12 00:49:14;;;;;;;16.38;9.57;;;;;;;12.34;100.00;98255.28;5159658;27;20111;-59
2023/10/12 00:51:40;;;;;;;18.92;8.85;;;;;;;12.11;100.00;98253.00;5159743;27;20054;-58
2023/10/12 00:54:10;;;;;;;17.38;9.10;;;;;;;12.54;100.00;98241.84;5159298;27;20046;-58
2023/10/12 00:56:36;;;;;;;19.40;8.40;;;;;;;12.35;100.00;98275.28;5159490;27;20046;-57
2023/10/12 00:59:03;;;;;;;19.20;10.30;;;;;;;12.40;100.00;98286.66;5159429;27;20369;-57
2023/10/12 01:01:31;;;;;;;16.80;9.32;;;;;;;12.36;100.00;98268.59;5159634;27;20085;-57
2023/10/12 01:03:57;;;;;;;22.17;9.43;;;;;;;12.19;100.00;98245.50;5159286;27;20127;-57
2023/10/12 01:06:28;;;;;;;17.98;10.05;;;;;;;12.53;100.00;98228.47;5159566;27;20472;-59
2023/10/12 01:08:59;;;;;;;17.45;9.02;;;;;;;12.37;100.00;98231.72;5159164;27;20050;-59
2023/10/12 01:11:26;;;;;;;21.60;9.98;;;;;;;12.63;100.00;98250.44;5159180;27;20369;-60
2023/10/12 01:14:05;;;;;;;18.30;9.90;;;;;;;12.80;100.00;98281.00;5159267;27;20325;-57
2023/10/12 01:16:44;;;;;;;16.63;9.60;;;;;;;12.52;100.00;98270.91;5159188;27;20111;-60
2023/10/12 01:19:16;;;;;;;23.80;10.27;;;;;;;12.43;100.00;98268.59;5159145;27;20465;-59
2023/10/12 01:21:43;;;;;;;16.70;9.68;;;;;;;12.57;100.00;98243.00;5158999;27;20134;-60
2023/10/12 01:24:12;;;;;;;22.40;9.65;;;;;;;12.62;100.00;98237.84;5159152;27;20149;-59
2023/10/12 01:26:38;;;;;;;24.17;10.00;;;;;;;12.75;100.00;98271.19;5158906;27;20110;-57
2023/10/12 01:29:04;;;;;;;17.15;9.38;;;;;;;12.62;100.00;98287.34;5159273;27;20057;-58
2023/10/12 01:31:30;;;;;;;18.20;10.25;;;;;;;12.71;100.00;98264.94;5158692;27;20054;-59
2023/10/12 01:33:59;;;;;;;23.88;9.43;;;;;;;12.67;100.00;98267.69;5159193;27;20088;-58
2023/10/12 01:36:28;;;;;;;18.63;10.25;;;;;;;12.65;100.00;98258.28;5158728;27;20198;-58
2023/10/12 01:39:10;;;;;;;21.08;9.32;;;;;;;12.81;100.00;98252.31;5158774;27;20066;-58
2023/10/12 01:41:36;;;;;;;21.17;9.43;;;;;;;12.67;100.00;98264.16;5158987;27;20065;-59
2023/10/12 01:44:02;;;;;;;21.98;9.95;;;;;;;12.92;100.00;98258.53;5158541;27;20050;-57
2023/10/12 01:46:28;;;;;;;20.98;9.27;;;;;;;12.67;100.00;98244.91;5158896;27;20050;-57
2023/10/12 01:48:54;;;;;;;21.65;9.43;;;;;;;12.52;100.00;98235.94;5158533;27;20050;-59
2023/10/12 01:51:24;;;;;;;24.42;9.52;;;;;;;12.64;100.00;98232.75;5158573;27;20074;-58
2023/10/12 01:53:53;;;;;;;23.05;11.38;;;;;;;12.74;100.00;98211.88;5158294;27;20504;-57
2023/10/12 01:56:19;;;;;;;27.98;11.80;;;;;;;12.67;100.00;98209.19;5158246;27;20051;-59
2023/10/12 01:58:48;;;;;;;33.65;12.60;;;;;;;12.77;100.00;98180.81;5158293;27;20058;-60
2023/10/12 02:01:18;;;;;;;30.88;12.30;;;;;;;12.65;100.00;98200.53;5158446;27;20065;-59
2023/10/12 02:03:45;;;;;;;38.20;12.98;;;;;;;12.70;100.00;98203.66;5158551;27;20050;-59
2023/10/12 02:06:14;;;;;;;39.03;13.82;;;;;;;12.67;100.00;98167.94;5158381;27;20107;-57
2023/10/12 02:08:45;;;;;;;30.83;12.82;;;;;;;12.62;100.00;98177.38;5158515;27;20050;-57
2023/10/12 02:11:26;;;;;;;31.92;13.93;;;;;;;12.88;100.00;98169.75;5158220;27;20050;-58
2023/10/12 02:13:54;;;;;;;25.58;11.55;;;;;;;13.05;100.00;98190.81;5158427;27;20048;-60
2023/10/12 02:16:23;;;;;;;25.38;12.02;;;;;;;12.82;100.00;98204.34;5158046;27;20043;-57
2023/10/12 02:18:50;;;;;;;30.92;13.10;;;;;;;12.98;100.00;98214.88;5158457;27;20465;-58
2023/10/12 02:21:20;;;;;;;24.33;10.57;;;;;;;12.93;100.00;98235.34;5158224;27;20042;-55
2023/10/12 02:26:35;;;;;;;29.77;11.73;;;;;;;13.13;100.00;98260.38;5144018;27;20479;-59
2023/10/12 02:29:17;;;;;;;20.27;10.55;;;;;;;13.03;100.00;98269.44;5158033;27;20047;-57
2023/10/12 02:31:54;;;;;;;21.23;11.25;;;;;;;12.99;100.00;98250.22;5158246;27;20074;-54
2023/10/12 02:34:25;;;;;;;22.85;11.30;;;;;;;13.06;100.00;98238.38;5157752;27;20050;-60
2023/10/12 02:37:00;;;;;;;20.80;11.05;;;;;;;12.95;100.00;98232.94;5158279;27;20399;-60
2023/10/12 02:39:27;;;;;;;19.63;10.45;;;;;;;13.03;100.00;98220.72;5157753;27;20107;-59
2023/10/12 02:42:10;;;;;;;21.95;10.65;;;;;;;13.14;100.00;98218.66;5157760;27;20057;-59
2023/10/12 02:44:42;;;;;;;19.23;10.02;;;;;;;13.05;100.00;98251.34;5158130;27;20061;-58
2023/10/12 02:47:12;;;;;;;23.25;9.70;;;;;;;13.07;100.00;98238.00;5157810;27;20327;-59
2023/10/12 02:49:39;;;;;;;22.23;10.20;;;;;;;13.06;100.00;98241.13;5158118;27;20047;-57
2023/10/12 02:52:08;;;;;;;16.88;9.48;;;;;;;13.10;100.00;98233.66;5157607;27;20051;-57
2023/10/12 02:54:48;;;;;;;17.70;9.45;;;;;;;13.01;100.00;98236.06;5157997;27;20137;-59
2023/10/12 02:57:15;;;;;;;24.27;10.02;;;;;;;13.05;100.00;98225.81;5157480;27;20103;-57
2023/10/12 02:59:42;;;;;;;22.80;8.82;;;;;;;13.10;100.00;98217.91;5157770;27;20058;-56
2023/10/12 03:02:19;;;;;;;20.88;9.77;;;;;;;13.12;100.00;98228.50;5158582;27;20047;-58
2023/10/12 03:04:45;;;;;;;20.00;8.98;;;;;;;13.23;100.00;98234.72;5161083;27;20404;-54
2023/10/12 03:07:16;;;;;;;18.23;8.88;;;;;;;13.42;100.00;98249.94;5161318;27;20050;-59
2023/10/12 03:09:50;;;;;;;15.10;9.60;;;;;;;13.20;100.00;98263.06;5160994;27;20107;-59
2023/10/12 03:12:20;;;;;;;20.67;9.43;;;;;;;13.24;100.00;98254.78;5161436;27;20042;-57
2023/10/12 03:14:50;;;;;;;25.90;9.43;;;;;;;13.28;100.00;98274.81;5160884;27;20331;-57
2023/10/12 03:17:17;;;;;;;24.67;10.65;;;;;;;13.43;100.00;98268.03;5161300;27;20051;-57
2023/10/12 03:19:55;;;;;;;15.38;9.30;;;;;;;13.33;100.00;98286.19;5161207;27;20060;-59
2023/10/12 03:22:25;;;;;;;20.95;10.60;;;;;;;13.31;100.00;98298.78;5161070;27;20047;-59
2023/10/12 03:24:51;;;;;;;17.08;9.90;;;;;;;13.38;100.00;98298.75;5160951;27;20475;-57
2023/10/12 03:27:18;;;;;;;22.63;10.75;;;;;;;13.40;100.00;98304.63;5160912;27;20063;-59
2023/10/12 03:29:51;;;;;;;27.58;10.57;;;;;;;13.45;100.00;98304.19;5161361;27;20051;-58
2023/10/12 03:32:22;;;;;;;18.67;9.57;;;;;;;13.65;100.00;98318.97;5160884;27;20047;-57
2023/10/12 03:34:56;;;;;;;20.35;9.45;;;;;;;13.40;100.00;98312.88;5161036;27;20111;-59
2023/10/12 03:40:23;;;;;;;18.92;9.75;;;;;;;13.53;100.00;98308.47;5159991;27;20172;-59
2023/10/12 03:42:52;;;;;;;14.95;9.18;;;;;;;13.60;100.00;98319.41;5160810;27;20054;-59
2023/10/12 03:45:24;;;;;;;23.33;14.63;;;;;;;13.58;100.00;98301.72;5160443;27;20078;-58
2023/10/12 03:48:03;;;;;;;20.05;9.88;;;;;;;13.51;100.00;98310.84;5160694;27;20046;-57
2023/10/12 03:50:33;;;;;;;16.08;9.40;;;;;;;13.54;100.00;98317.50;5160335;27;20499;-60
2023/10/12 03:52:59;;;;;;;15.43;8.50;;;;;;;13.61;100.00;98317.44;5161051;27;20058;-57
2023/10/12 03:55:27;;;;;;;19.60;9.25;;;;;;;13.68;100.00;98319.38;5160207;27;20078;-57
2023/10/12 03:58:00;;;;;;;17.55;10.02;;;;;;;13.63;100.00;98340.66;5160726;27;20060;-55
2023/10/12 04:00:34;;;;;;;22.23;8.57;;;;;;;13.84;100.00;98341.66;5160544;27;20065;-58
2023/10/12 04:03:14;;;;;;;20.92;13.50;;;;;;;13.96;100.00;98360.47;5160390;27;20047;-57
2023/10/12 04:05:55;;;;;;;23.35;13.70;;;;;;;13.74;100.00;98375.59;5160513;27;20141;-57
2023/10/12 04:08:43;;;;;;;18.20;8.18;;;;;;;13.82;100.00;98363.31;5160022;27;20046;-55
2023/10/12 04:14:43;;;;;;;21.95;8.45;;;;;;;13.81;100.00;98347.97;5158875;27;20046;-58
2023/10/12 04:17:09;;;;;;;25.80;9.82;;;;;;;13.88;100.00;98342.41;5159848;27;20074;-59
2023/10/12 04:19:43;;;;;;;16.45;8.20;;;;;;;13.90;100.00;98334.53;5160290;27;20054;-58
2023/10/12 04:22:25;;;;;;;16.60;8.40;;;;;;;13.87;100.00;98352.66;5159856;27;20103;-59
2023/10/12 04:24:54;;;;;;;20.33;8.32;;;;;;;13.86;100.00;98366.81;5160273;27;20076;-59
2023/10/12 04:27:41;;;;;;;20.90;12.93;;;;;;;13.91;100.00;98352.63;5159800;27;21427;-59
2023/10/12 04:30:20;;;;;;;16.88;12.10;;;;;;;13.94;100.00;98370.31;5159716;27;20054;-59
2023/10/12 04:32:57;;;;;;;15.55;8.75;;;;;;;13.97;100.00;98356.50;5159754;27;20072;-58
2023/10/12 04:35:43;;;;;;;12.80;7.45;;;;;;;13.84;100.00;98342.44;5159713;27;20340;-57
2023/10/12 04:38:22;;;;;;;20.08;12.73;;;;;;;14.22;100.00;98352.72;5160094;27;20082;-58
2023/10/12 04:43:30;;;;;;;20.42;13.23;;;;;;;14.06;100.00;98354.06;5158588;27;20398;-58
2023/10/12 04:46:26;;;;;;;19.10;8.45;;;;;;;14.00;100.00;98354.91;5159496;27;20058;-60
2023/10/12 04:49:01;;;;;;;30.98;8.30;;;;;;;14.01;100.00;98348.97;5159539;27;20046;-58
2023/10/12 04:51:30;;;;;;;21.38;13.23;;;;;;;14.05;100.00;98335.16;5159892;27;20315;-59
2023/10/12 04:53:58;;;;;;;22.90;13.60;;;;;;;14.09;100.00;98344.97;5159108;27;20057;-58
2023/10/12 04:56:26;;;;;;;19.55;7.75;;;;;;;14.07;100.00;98352.09;5159773;27;20062;-60
2023/10/12 04:58:56;;;;;;;16.77;8.32;;;;;;;14.07;100.00;98339.09;5159303;27;20129;-57
2023/10/12 05:01:28;;;;;;;20.75;8.55;;;;;;;14.05;100.00;98322.16;5159142;27;20047;-59
2023/10/12 05:04:07;;;;;;;22.92;8.60;;;;;;;14.12;100.00;98338.63;5159336;27;20112;-59
2023/10/12 05:06:36;;;;;;;18.52;8.77;;;;;;;14.08;100.00;98340.63;5159093;27;20046;-57
2023/10/12 05:09:10;;;;;;;17.63;8.50;;;;;;;14.17;100.00;98333.88;5159016;27;20055;-60
2023/10/12 05:11:37;;;;;;;16.58;7.72;;;;;;;14.06;100.00;98326.50;5158645;27;20057;-55
2023/10/12 05:14:13;;;;;;;18.42;7.93;;;;;;;14.28;100.00;98327.06;5158039;27;20141;-58
2023/10/12 05:16:42;;;;;;;22.25;8.32;;;;;;;14.40;100.00;98309.22;5158859;27;20404;-59
2023/10/12 05:19:09;;;;;;;25.17;8.38;;;;;;;14.51;100.00;98306.34;5158571;27;20062;-57
2023/10/12 05:21:35;;;;;;;19.23;8.18;;;;;;;14.36;100.00;98273.41;5158328;27;20058;-55
2023/10/12 05:24:01;;;;;;;16.88;9.38;;;;;;;14.92;100.00;98159.97;5158324;27;20151;-57
2023/10/12 05:26:27;;;;;;;22.80;10.48;;;;;;;15.10;100.00;97853.31;5158186;27;20129;-54
2023/10/12 05:29:17;;;;;;;21.15;6.50;;;;;;;15.15;100.00;97730.56;5158895;27;20078;-57
2023/10/12 05:31:48;;;;;;;17.63;7.38;;;;;;;14.52;100.00;97999.81;5158614;27;20413;-58
2023/10/12 05:34:32;;;;;;;23.08;12.02;;;;;;;14.76;100.00;98174.41;5158507;27;20062;-60
2023/10/12 05:37:00;;;;;;;12.95;7.57;;;;;;;14.62;100.00;98196.66;5158429;27;20089;-60
2023/10/12 05:39:27;;;;;;;16.42;7.70;;;;;;;14.63;100.00;98239.63;5158543;27;20046;-58
2023/10/12 05:41:56;;;;;;;13.80;7.05;;;;;;;14.72;100.00;98228.06;5158765;27;20046;-58
2023/10/12 05:44:26;;;;;;;16.95;7.25;;;;;;;14.69;100.00;98195.78;5158009;27;20428;-57
2023/10/12 05:46:58;;;;;;;22.50;12.40;;;;;;;14.69;100.00;98223.38;5158557;27;20355;-57
2023/10/12 05:49:25;;;;;;;22.08;12.48;;;;;;;14.51;100.00;98223.63;5158169;27;20051;-55
2023/10/12 05:51:51;;;;;;;15.88;7.65;;;;;;;14.63;100.00;98256.19;5158709;27;20308;-53
2023/10/12 05:54:20;;;;;;;19.30;7.15;;;;;;;14.69;100.00;98221.41;5157909;27;20051;-58
2023/10/12 05:56:47;;;;;;;18.08;7.93;;;;;;;14.68;100.00;98203.28;5158610;27;20050;-60
2023/10/12 05:59:13;;;;;;;19.30;11.70;;;;;;;14.77;100.00;98244.94;5157864;27;20053;-58
2023/10/12 06:01:40;;;;;;;19.70;7.93;;;;;;;14.62;100.00;98223.47;5158456;27;20042;-54
2023/10/12 06:04:07;;;;;;;18.35;8.13;;;;;;;14.74;100.00;98204.38;5157971;27;20047;-57
2023/10/12 06:06:35;;;;;;;12.52;6.85;;;;;;;14.62;100.00;98237.28;5158229;27;20137;-53
2023/10/12 06:09:01;;;;;;;22.08;6.93;;;;;;;14.72;100.00;98223.31;5158325;27;20130;-57
2023/10/12 06:11:29;;;;;;;16.95;7.57;;;;;;;14.94;100.00;98190.69;5157937;27;20222;-57
2023/10/12 06:13:59;;;;;;;11.77;6.78;;;;;;;14.78;100.00;98160.19;5157931;27;20050;-57
2023/10/12 06:16:26;;;;;;;14.43;7.22;;;;;;;15.04;100.00;98164.91;5157905;27;20137;-55
2023/10/12 06:18:54;;;;;;;18.02;7.72;;;;;;;15.01;100.00;98142.88;5158090;27;20396;-58
2023/10/12 06:21:20;;;;;;;16.42;7.22;;;;;;;15.03;100.00;98071.50;5157667;27;20056;-56
2023/10/12 06:23:48;;;;;;;16.73;7.75;;;;;;;14.95;100.00;98062.53;5153450;27;20046;-55
2023/10/12 06:26:28;;;;;;;18.20;11.40;;;;;;;14.95;100.00;98125.25;5157714;27;20111;-57
2023/10/12 06:28:56;;;;;;;15.75;7.15;;;;;;;14.99;100.00;98112.94;5157622;27;20057;-57
2023/10/12 06:31:22;;;;;;;15.55;8.27;;;;;;;15.04;100.00;98136.53;5157561;27;20404;-58
2023/10/12 06:33:49;;;;;;;23.67;11.82;;;;;;;15.18;100.00;98099.63;5156687;27;20061;-53
2023/10/12 06:36:16;;;;;;;18.10;8.45;;;;;;;15.00;100.00;98108.22;5157399;27;20430;-55
2023/10/12 06:38:48;;;;;;;21.20;7.88;;;;;;;15.15;100.00;98094.94;5160728;27;20058;-53
2023/10/12 06:44:13;;;;;;;23.45;12.68;;;;;;;15.21;100.00;98013.97;5139246;28;20047;-56
2023/10/12 06:46:46;;;;;;;16.85;7.85;;;;;;;15.28;100.00;98062.75;5140316;28;20048;-57
2023/10/12 06:49:17;;;;;;;19.45;6.70;;;;;;;15.21;100.00;98025.00;5140729;28;20115;-56
2023/10/12 06:51:43;;;;;;;21.90;11.45;;;;;;;15.35;100.00;98035.00;5142951;27;20069;-58
2023/10/12 06:54:18;;;;;;;18.30;7.97;;;;;;;15.48;100.00;98062.75;5161331;27;20050;-56
2023/10/12 06:56:49;;;;;;;16.95;7.80;;;;;;;15.16;100.00;98072.44;5161170;27;20051;-60
2023/10/12 06:59:21;;;;;;;20.60;13.43;;;;;;;15.48;100.00;98093.91;5161067;27;20051;-59
2023/10/12 07:02:09;;;;;;;17.35;7.50;;;;;;;15.36;100.00;98100.09;5160439;27;20412;-61
2023/10/12 07:11:23;;;;;;;19.15;7.22;;;;;;;15.01;100.00;98231.97;5160516;27;20326;-58
2023/10/12 07:13:49;;;;;;;20.58;7.13;;;;;;;15.24;100.00;98253.31;5160252;27;20098;-62
2023/10/12 07:16:16;;;;;;;15.27;7.43;;;;;;;15.42;100.00;98208.06;5160331;27;20046;-58
2023/10/12 07:18:49;;;;;;;23.15;11.75;;;;;;;15.13;100.00;98185.66;5160536;27;20074;-58
2023/10/12 07:21:21;;;;;;;18.88;11.70;;;;;;;15.21;100.00;98261.66;5160436;27;20051;-59
2023/10/12 07:23:52;;;;;;;21.48;7.43;;;;;;;15.18;100.00;98274.31;5160082;27;20046;-60
2023/10/12 07:26:18;;;;;;;13.98;8.02;;;;;;;15.28;100.00;98320.31;5160538;27;20111;-59
2023/10/12 07:28:49;;;;;;;15.20;8.75;;;;;;;15.48;100.00;98312.13;5160468;27;20050;-58
2023/10/12 07:31:31;;;;;;;17.60;9.25;;;;;;;15.27;100.00;98368.47;5160431;27;20058;-57
2023/10/12 07:34:01;;;;;;;11.90;5.93;;;;;;;14.52;100.00;98372.13;5160699;27;20405;-59
2023/10/12 07:36:44;;;;;;;7.20;3.55;;;;;;;14.33;100.00;98318.34;5160581;27;20130;-60
2023/10/12 07:39:19;;;;;;;4.35;2.63;;;;;;;13.62;100.00;98275.72;5139665;28;20058;-59
2023/10/12 07:41:53;;;;;;;5.78;4.15;;;;;;;13.68;100.00;98361.44;5139906;28;20055;-59
2023/10/12 07:44:20;;;;;;;4.55;2.65;;;;;;;13.24;100.00;98451.00;5148671;27;20050;-60
2023/10/12 07:46:46;;;;;;;5.22;2.40;;;;;;;13.56;100.00;98459.13;5160560;27;20055;-59
2023/10/12 07:49:25;;;;;;;5.18;4.65;;;;;;;13.36;100.00;98449.75;5159594;27;20386;-59
2023/10/12 07:51:59;;;;;;;4.57;2.40;;;;;;;13.24;100.00;98477.72;5160523;27;20078;-59
2023/10/12 07:54:46;;;;;;;2.67;1.35;;;;;;;13.16;100.00;98502.53;5159803;27;20217;-60
2023/10/12 07:57:11;;;;;;;7.90;2.38;;;;;;;13.05;100.00;98489.97;5159648;27;20050;-61
2023/10/12 07:59:38;;;;;;;3.58;1.80;;;;;;;12.75;100.00;98491.22;5159980;27;20047;-60
2023/10/12 08:02:15;;;;;;;1.90;1.35;;;;;;;12.88;100.00;98458.56;5159784;27;20070;-58
2023/10/12 08:04:56;;;;;;;3.97;1.25;;;;;;;12.64;100.00;98449.97;5159960;27;20086;-60
2023/10/12 08:07:26;;;;;;;4.68;1.58;;;;;;;12.43;100.00;98420.56;5159821;27;20061;-57
2023/10/12 08:09:53;;;;;;;3.90;1.70;;;;;;;12.50;100.00;98344.75;5160411;27;20061;-57
2023/10/12 08:12:24;;;;;;;5.95;1.90;;;;;;;12.68;100.00;98332.50;5160045;27;20141;-59
2023/10/12 08:14:53;;;;;;;1.55;1.17;;;;;;;12.72;100.00;98352.53;5159545;27;20053;-61
2023/10/12 08:17:25;;;;;;;1.90;1.73;;;;;;;12.29;100.00;98348.34;5159895;27;20324;-62
2023/10/12 08:19:56;;;;;;;4.38;1.98;;;;;;;12.47;100.00;98286.63;5159279;27;20053;-58
2023/10/12 08:22:26;;;;;;;6.65;3.95;;;;;;;12.51;100.00;98261.09;5159982;27;20047;-57
2023/10/12 08:24:53;;;;;;;3.00;1.60;;;;;;;12.72;100.00;98248.00;5159608;27;20069;-60
2023/10/12 08:27:19;;;;;;;5.30;2.22;;;;;;;12.60;100.00;98253.22;5160120;27;20057;-57
2023/10/12 08:30:11;;;;;;;4.22;1.50;;;;;;;12.39;100.00;98243.84;5159339;27;20099;-55
2023/10/12 08:32:42;;;;;;;3.28;1.45;;;;;;;12.58;100.00;98214.31;5158791;27;20085;-59
2023/10/12 08:35:32;;;;;;;9.02;2.45;;;;;;;12.47;100.00;98208.88;5159781;27;20051;-56
2023/10/12 08:38:12;;;;;;;4.45;1.45;;;;;;;12.61;100.00;98184.06;5159209;27;20305;-59
2023/10/12 08:40:53;;;;;;;3.78;1.75;;;;;;;12.59;100.00;98194.66;5159294;27;20046;-59
2023/10/12 08:43:34;;;;;;;7.78;1.70;;;;;;;12.62;100.00;98180.13;5159168;27;20098;-59
2023/10/12 08:46:01;;;;;;;4.63;2.83;;;;;;;12.75;100.00;98190.66;5159642;27;20050;-59
2023/10/12 08:48:27;;;;;;;3.83;1.27;;;;;;;12.61;100.00;98189.56;5159259;27;20059;-58
2023/10/12 08:51:06;;;;;;;2.58;1.92;;;;;;;12.73;100.00;98166.31;5158934;27;20203;-57
2023/10/12 08:53:34;;;;;;;3.33;1.95;;;;;;;12.44;100.00;98158.25;5159040;27;20051;-56
2023/10/12 08:56:06;;;;;;;4.50;1.92;;;;;;;12.70;100.00;98132.16;5158780;27;20066;-57
2023/10/12 08:58:42;;;;;;;5.15;2.10;;;;;;;12.54;100.00;98114.59;5159313;27;20047;-59
2023/10/12 09:01:08;;;;;;;3.38;2.53;;;;;;;12.52;100.00;98081.22;5157732;27;20054;-54
2023/10/12 09:03:39;;;;;;;4.65;2.10;;;;;;;12.85;100.00;98086.06;5159427;27;20499;-61
2023/10/12 09:06:19;;;;;;;6.85;1.90;;;;;;;12.93;100.00;98122.56;5159010;27;20059;-55
2023/10/12 09:08:46;;;;;;;4.03;2.42;;;;;;;13.01;100.00;98139.78;5159191;27;20242;-57
2023/10/12 09:11:17;;;;;;;3.05;2.08;;;;;;;13.09;100.00;98146.78;5158915;27;20073;-56
2023/10/12 09:13:45;;;;;;;8.13;3.13;;;;;;;13.02;100.00;98147.63;5158767;27;20057;-56
2023/10/12 09:16:14;;;;;;;4.88;2.33;;;;;;;13.07;100.00;98122.44;5158984;27;20050;-57
2023/10/12 09:18:44;;;;;;;5.72;2.00;;;;;;;12.85;100.00;98132.03;5158712;27;20442;-61
2023/10/12 09:21:23;;;;;;;2.83;1.65;;;;;;;13.05;100.00;98157.81;5158858;27;20298;-60
2023/10/12 09:23:52;;;;;;;2.55;1.80;;;;;;;13.40;100.00;98178.78;5158680;27;20076;-56
2023/10/12 09:26:30;;;;;;;2.50;2.25;;;;;;;13.36;100.00;98232.28;5157096;27;20141;-57
2023/10/12 09:29:20;;;;;;;5.13;1.90;;;;;;;13.43;100.00;98243.25;5143199;27;20172;-60
2023/10/12 09:34:47;;;;;;;2.65;1.60;;;;;;;13.39;100.00;98243.28;5159108;27;20050;-58
2023/10/12 09:37:16;;;;;;;8.27;3.72;;;;;;;13.41;100.00;98231.84;5158508;27;20062;-60
2023/10/12 09:39:45;;;;;;;2.35;1.63;;;;;;;13.32;100.00;98217.78;5157209;27;20114;-54
2023/10/12 09:42:22;;;;;;;4.25;2.00;;;;;;;13.55;100.00;98250.22;5158307;27;20050;-60
2023/10/12 09:45:01;;;;;;;2.08;1.50;;;;;;;13.37;100.00;98269.66;5141865;27;20078;-59
2023/10/12 09:47:43;;;;;;;2.10;1.85;;;;;;;13.40;100.00;98258.59;5154024;27;20080;-59
2023/10/12 09:50:13;;;;;;;1.67;1.30;;;;;;;13.62;100.00;98272.19;5157825;27;20462;-57
2023/10/12 09:52:46;;;;;;;6.65;2.85;;;;;;;13.65;100.00;98290.66;5158621;27;20053;-65
2023/10/12 09:55:23;;;;;;;5.88;1.88;;;;;;;13.51;100.00;98302.56;5158279;27;20054;-62
2023/10/12 09:57:52;;;;;;;4.45;1.50;;;;;;;13.46;100.00;98277.44;5158898;27;20392;-62
2023/10/12 10:00:26;;;;;;;2.85;1.90;;;;;;;13.67;100.00;98266.25;5158362;27;20050;-61
2023/10/12 10:02:58;;;;;;;4.07;2.95;;;;;;;13.58;100.00;98260.44;5157622;27;20054;-63
2023/10/12 10:05:46;;;;;;;3.03;1.95;;;;;;;13.56;100.00;98255.34;5158254;27;20058;-62
2023/10/12 10:08:17;;;;;;;2.65;1.30;;;;;;;13.44;100.00;98266.84;5158003;27;20335;-63
2023/10/12 10:10:45;;;;;;;3.22;1.48;;;;;;;13.71;100.00;98283.53;5157657;27;20061;-63
2023/10/12 10:13:38;;;;;;;8.77;3.08;;;;;;;13.62;100.00;98296.97;5157471;27;20051;-62
2023/10/12 10:16:08;;;;;;;2.45;1.75;;;;;;;13.51;100.00;98294.31;5158241;27;20061;-62
2023/10/12 10:18:45;;;;;;;2.83;1.70;;;;;;;13.47;100.00;98266.03;5157915;27;20062;-61
2023/10/12 10:21:13;;;;;;;4.63;1.85;;;;;;;13.76;100.00;98257.50;5158013;27;20050;-60
2023/10/12 10:23:48;;;;;;;2.20;1.30;;;;;;;13.46;100.00;98250.69;5157835;27;20085;-62
2023/10/12 10:26:20;;;;;;;3.80;1.40;;;;;;;13.88;100.00;98274.31;5157787;27;20055;-58
2023/10/12 10:28:54;;;;;;;6.00;3.85;;;;;;;13.80;100.00;98280.31;5157259;27;20111;-61
2023/10/12 10:31:24;;;;;;;;;;;;;;;13.76;100.00;98260.25;5157420;27;20050;-62
2023/10/12 10:33:51;;;;;;;3.67;2.33;;;;;;;13.84;100.00;98268.06;5157518;27;20028;-59
2023/10/12 10:36:17;;;;;;;4.85;2.00;;;;;;;13.63;100.00;98249.75;5156973;27;20047;-61
2023/10/12 10:38:53;;;;;;;1.58;1.40;;;;;;;13.76;100.00;98241.78;5157630;27;20047;-62
2023/10/12 10:41:22;;;;;;;3.22;1.80;;;;;;;13.90;100.00;98240.84;5157820;27;20047;-61
2023/10/12 10:43:51;;;;;;;5.65;2.10;;;;;;;13.70;100.00;98253.66;5156885;27;20050;-60
2023/10/12 10:46:18;;;;;;;2.50;2.10;;;;;;;13.91;100.00;98280.19;5157251;27;20058;-61
2023/10/12 10:48:49;;;;;;;3.65;1.90;;;;;;;13.80;100.00;98299.59;5156855;27;20079;-61
2023/10/12 10:51:18;;;;;;;7.70;2.13;;;;;;;13.74;100.00;98309.47;5157537;27;20142;-61
2023/10/12 10:53:51;;;;;;;2.20;1.65;;;;;;;13.52;100.00;98306.09;5157460;27;20062;-59
2023/10/12 10:56:32;;;;;;;2.05;1.52;;;;;;;13.66;100.00;98289.47;5137018;28;20112;-61
2023/10/12 10:58:59;;;;;;;2.42;2.13;;;;;;;13.79;100.00;98274.00;5136487;28;20485;-59
2023/10/12 11:01:26;;;;;;;1.92;1.73;;;;;;;13.62;100.00;98272.19;5136716;28;20120;-61
2023/10/12 11:03:52;;;;;;;5.80;1.58;;;;;;;13.74;100.00;98265.41;5137218;27;20051;-57
2023/10/12 11:06:21;;;;;;;1.88;1.45;;;;;;;13.62;100.00;98248.19;5156719;27;20106;-60
2023/10/12 11:09:02;;;;;;;4.30;1.63;;;;;;;13.70;100.00;98234.38;5146232;27;20116;-62
2023/10/12 11:11:37;;;;;;;4.88;2.75;;;;;;;13.69;100.00;98244.56;5147247;27;20047;-61
2023/10/12 11:14:03;;;;;;;5.00;2.70;;;;;;;13.83;100.00;98222.41;5157297;27;20061;-62
2023/10/12 11:16:29;;;;;;;3.40;2.28;;;;;;;13.70;100.00;98246.16;5156841;27;20115;-60
2023/10/12 11:18:57;;;;;;;3.67;2.47;;;;;;;13.68;100.00;98209.19;5157438;27;20142;-61
2023/10/12 11:21:25;;;;;;;6.10;1.90;;;;;;;13.49;100.00;98203.06;5157213;27;20046;-59
2023/10/12 11:23:57;;;;;;;3.17;1.58;;;;;;;13.80;100.00;98198.44;5158955;27;20104;-60
2023/10/12 11:26:23;;;;;;;2.10;1.67;;;;;;;13.85;100.00;98220.03;5160885;27;20046;-59
2023/10/12 11:29:02;;;;;;;3.75;2.60;;;;;;;13.46;100.00;98227.88;5160501;27;20082;-60
2023/10/12 11:31:30;;;;;;;3.70;1.90;;;;;;;13.78;100.00;98214.59;5160448;27;20043;-60
2023/10/12 11:33:57;;;;;;;2.15;1.95;;;;;;;13.70;100.00;98226.09;5160705;27;20046;-62
2023/10/12 11:36:24;;;;;;;3.45;1.45;;;;;;;13.40;100.00;98202.78;5160764;27;20095;-60
2023/10/12 11:39:01;;;;;;;2.67;1.75;;;;;;;13.60;100.00;98181.72;5160413;27;20047;-61
2023/10/12 11:41:28;;;;;;;3.17;1.65;;;;;;;13.47;100.00;98175.16;5160939;27;20129;-61
2023/10/12 11:43:57;;;;;;;2.08;1.88;;;;;;;13.88;100.00;98177.88;5160658;27;20050;-62
2023/10/12 11:46:24;;;;;;;2.47;1.77;;;;;;;13.95;100.00;98190.78;5160642;27;20050;-61
2023/10/12 11:49:04;;;;;;;3.60;1.75;;;;;;;13.88;100.00;98221.19;5160571;27;20141;-62
2023/10/12 11:51:30;;;;;;;4.47;3.85;;;;;;;14.23;100.00;98249.53;5160278;27;20106;-61
2023/10/12 11:53:56;;;;;;;4.25;1.75;;;;;;;14.18;100.00;98264.56;5160553;27;20422;-61
2023/10/12 11:56:23;;;;;;;3.95;2.25;;;;;;;13.98;100.00;98258.09;5160314;27;20121;-61
2023/10/12 11:58:54;;;;;;;41.15;4.38;;;;;;;13.80;100.00;98259.03;5160549;27;20336;-62
2023/10/12 12:01:20;;;;;;;7.03;2.40;;;;;;;14.20;100.00;98250.38;5160078;27;20069;-62
2023/10/12 12:03:47;;;;;;;44.78;5.97;;;;;;;14.21;100.00;98258.22;5160550;27;20141;-59